BKPR/PRN METAR and TAF weather

Enter ICAO airport designator
Station Type Date Time Source
BKPR METAR 2019/05/26 01:00 UTC NOAA

BKPR 260100Z VRB01KT CAVOK 10/07 Q1017 NOSIG


Station Type Date Time Source
BKPR Decoded METAR 2019/05/26 01:00 UTC NOAA

Station name not available
May 25, 2019 - 09:00 PM EDT / 2019.05.26 0100 UTC
Wind: Variable at 1 MPH (1 KT):0
Visibility: greater than 7 mile(s):0
Temperature: 50 F (10 C)
Dew Point: 44 F (7 C)
Relative Humidity: 81%
Pressure (altimeter): 30.03 in. Hg (1017 hPa)
ob: BKPR 260100Z VRB01KT CAVOK 10/07 Q1017 NOSIG
cycle: 1

Station Type Date Time Source
BKPR TAF 2019/05/25 18:30 UTC NOAA

TAF BKPR 251730Z 2518/2618 26006KT 9999 FEW040 SCT100
TEMPO 2602/2607 4000 BR

Example: see airport list